Time;durP1;ratioP1;P1;durP2;ratioP2;P2;SDS_P1;SDS_P2;PMS_P1;PMS_P2;Temp;Humidity;BMP_temperature;BMP_pressure;BME280_temperature;BME280_humidity;BME280_pressure;Samples;Min_cycle;Max_cycle;Signal;HPM_P1;HPM_P2
2024/01/27 00:01:56;;;;;;;11.20;2.47;;;;;;;;;;5054675;28;20048;-61
2024/01/27 00:04:22;;;;;;;10.32;2.47;;;;;;;;;;5056035;28;20040;-61
2024/01/27 00:06:48;;;;;;;3.35;1.88;;;;;;;;;;5053424;28;20035;-61
2024/01/27 00:09:15;;;;;;;6.35;1.48;;;;;;;;;;5053741;28;20036;-61
2024/01/27 00:11:41;;;;;;;3.67;2.00;;;;;;;;;;5056362;28;20229;-60
2024/01/27 00:14:07;;;;;;;3.45;2.20;;;;;;;;;;5050039;28;20414;-60
2024/01/27 00:16:33;;;;;;;5.45;1.77;;;;;;;;;;5063596;28;20029;-61
2024/01/27 00:18:59;;;;;;;3.88;2.13;;;;;;;;;;5050142;28;20875;-61
2024/01/27 00:21:29;;;;;;;2.25;1.60;;;;;;;;;;5066588;28;20067;-60
2024/01/27 00:24:00;;;;;;;2.65;1.77;;;;;;;;;;5060297;28;20316;-61
2024/01/27 00:26:27;;;;;;;3.80;2.10;;;;;;;;;;5067689;28;20036;-60
2024/01/27 00:28:54;;;;;;;8.25;2.22;;;;;;;;;;5058228;28;20391;-61
2024/01/27 00:31:20;;;;;;;6.88;1.70;;;;;;;;;;5053943;28;20095;-60
2024/01/27 00:33:47;;;;;;;5.15;2.22;;;;;;;;;;5062176;28;20060;-61
2024/01/27 00:36:13;;;;;;;2.50;1.88;;;;;;;;;;5050378;28;20086;-61
2024/01/27 00:38:40;;;;;;;2.92;1.65;;;;;;;;;;5052132;28;20055;-63
2024/01/27 00:41:06;;;;;;;2.13;1.92;;;;;;;;;;5061055;28;20032;-61
2024/01/27 00:43:32;;;;;;;4.82;2.20;;;;;;;;;;5055329;28;20116;-61
2024/01/27 00:45:59;;;;;;;8.57;2.47;;;;;;;;;;5061014;28;20050;-64
2024/01/27 00:48:25;;;;;;;4.90;2.00;;;;;;;;;;5055002;28;20024;-61
2024/01/27 00:50:51;;;;;;;5.50;1.88;;;;;;;;;;5063052;28;20028;-61
2024/01/27 00:53:17;;;;;;;3.25;1.83;;;;;;;;;;5052787;28;20025;-61
2024/01/27 00:55:44;;;;;;;10.90;2.13;;;;;;;;;;5061413;28;20024;-61
2024/01/27 00:58:10;;;;;;;7.07;1.80;;;;;;;;;;5060288;28;20032;-61
2024/01/27 01:00:37;;;;;;;4.50;1.58;;;;;;;;;;5062612;28;20025;-62
2024/01/27 01:03:03;;;;;;;9.13;2.30;;;;;;;;;;5062105;28;20024;-62
2024/01/27 01:05:35;;;;;;;5.82;2.10;;;;;;;;;;5061360;28;20032;-61
2024/01/27 01:08:02;;;;;;;9.20;1.88;;;;;;;;;;5060871;28;20115;-61
2024/01/27 01:10:29;;;;;;;2.25;1.63;;;;;;;;;;5061624;28;20573;-60
2024/01/27 01:12:55;;;;;;;5.78;1.83;;;;;;;;;;5067365;28;20116;-66
2024/01/27 01:15:21;;;;;;;4.20;1.83;;;;;;;;;;5060779;28;20032;-66
2024/01/27 01:17:48;;;;;;;5.53;1.75;;;;;;;;;;5059530;28;20017;-67
2024/01/27 01:20:15;;;;;;;8.25;2.10;;;;;;;;;;5062243;28;20597;-66
2024/01/27 01:22:42;;;;;;;2.20;2.10;;;;;;;;;;5062608;28;20185;-67
2024/01/27 01:25:08;;;;;;;6.00;1.85;;;;;;;;;;5062884;28;20033;-66
2024/01/27 01:27:34;;;;;;;3.67;1.88;;;;;;;;;;5067251;28;20354;-66
2024/01/27 01:30:00;;;;;;;1.75;1.60;;;;;;;;;;5068421;28;20032;-66
2024/01/27 01:32:27;;;;;;;2.45;2.00;;;;;;;;;;5060891;28;20028;-66
2024/01/27 01:34:53;;;;;;;3.22;1.88;;;;;;;;;;5064502;28;20031;-66
2024/01/27 01:37:19;;;;;;;4.30;2.08;;;;;;;;;;5062667;28;20107;-66
2024/01/27 01:39:45;;;;;;;3.38;2.33;;;;;;;;;;5060719;28;20573;-66
2024/01/27 01:42:11;;;;;;;3.83;1.55;;;;;;;;;;5063955;28;20085;-66
2024/01/27 01:44:38;;;;;;;10.05;2.10;;;;;;;;;;5063622;28;20036;-66
2024/01/27 01:47:05;;;;;;;2.35;1.42;;;;;;;;;;5059078;28;20028;-66
2024/01/27 01:49:31;;;;;;;2.72;1.73;;;;;;;;;;5057323;28;20028;-66
2024/01/27 01:51:57;;;;;;;3.92;1.80;;;;;;;;;;5061408;28;20028;-66
2024/01/27 01:54:27;;;;;;;6.10;2.50;;;;;;;;;;5059643;28;20043;-67
2024/01/27 01:56:53;;;;;;;5.45;1.88;;;;;;;;;;5056715;28;20051;-66
2024/01/27 01:59:19;;;;;;;5.95;2.15;;;;;;;;;;5055282;28;20033;-67
2024/01/27 02:01:46;;;;;;;8.65;2.58;;;;;;;;;;5054583;28;20100;-67
2024/01/27 02:04:12;;;;;;;4.63;1.95;;;;;;;;;;5057931;28;20574;-67
2024/01/27 02:06:38;;;;;;;4.80;2.78;;;;;;;;;;5063074;28;20492;-66
2024/01/27 02:09:05;;;;;;;7.68;2.95;;;;;;;;;;5060459;28;20567;-66
2024/01/27 02:11:32;;;;;;;3.10;2.03;;;;;;;;;;5062622;28;20920;-66
2024/01/27 02:13:58;;;;;;;4.32;1.88;;;;;;;;;;5067757;28;20093;-66
2024/01/27 02:16:24;;;;;;;3.53;1.83;;;;;;;;;;5061271;28;20039;-66
2024/01/27 02:18:53;;;;;;;4.00;1.45;;;;;;;;;;5060920;28;20025;-66
2024/01/27 02:21:25;;;;;;;5.20;1.20;;;;;;;;;;5059128;28;20032;-67
2024/01/27 02:23:55;;;;;;;5.68;2.08;;;;;;;;;;5060082;28;20043;-66
2024/01/27 02:26:21;;;;;;;3.30;1.85;;;;;;;;;;5064266;28;20024;-66
2024/01/27 02:28:47;;;;;;;3.63;1.17;;;;;;;;;;5052942;28;20410;-66
2024/01/27 02:31:14;;;;;;;1.60;1.33;;;;;;;;;;5063015;28;20035;-66
2024/01/27 02:33:40;;;;;;;2.33;1.52;;;;;;;;;;5063882;28;20041;-66
2024/01/27 02:36:06;;;;;;;6.13;1.88;;;;;;;;;;5065900;28;20035;-66
2024/01/27 02:38:32;;;;;;;5.50;1.50;;;;;;;;;;5059921;28;20420;-66
2024/01/27 02:40:58;;;;;;;4.28;1.65;;;;;;;;;;5053739;28;20048;-66
2024/01/27 02:43:24;;;;;;;2.03;1.70;;;;;;;;;;5065019;28;20052;-66
2024/01/27 02:45:51;;;;;;;1.45;1.38;;;;;;;;;;5065671;28;20047;-66
2024/01/27 02:48:17;;;;;;;3.28;1.90;;;;;;;;;;5062966;28;20029;-66
2024/01/27 02:50:43;;;;;;;7.47;1.80;;;;;;;;;;5062325;28;20020;-66
2024/01/27 02:53:10;;;;;;;4.03;1.92;;;;;;;;;;5056606;28;20035;-66
2024/01/27 02:55:36;;;;;;;3.05;1.50;;;;;;;;;;5063642;28;20024;-67
2024/01/27 02:58:02;;;;;;;7.20;2.28;;;;;;;;;;5064609;28;20042;-66
2024/01/27 03:00:28;;;;;;;2.78;2.33;;;;;;;;;;5053654;28;20115;-61
2024/01/27 03:02:57;;;;;;;6.28;1.90;;;;;;;;;;5063713;28;20037;-63
2024/01/27 03:05:23;;;;;;;5.72;1.88;;;;;;;;;;5060275;28;20032;-61
2024/01/27 03:07:49;;;;;;;8.40;2.00;;;;;;;;;;5057578;28;20028;-66
2024/01/27 03:10:15;;;;;;;1.42;1.35;;;;;;;;;;5059546;28;20021;-61
2024/01/27 03:12:41;;;;;;;4.68;1.92;;;;;;;;;;5060944;28;20052;-61
2024/01/27 03:15:09;;;;;;;2.25;2.05;;;;;;;;;;5054328;28;20051;-60
2024/01/27 03:17:35;;;;;;;1.92;1.52;;;;;;;;;;5063502;28;20470;-61
2024/01/27 03:20:01;;;;;;;4.93;1.50;;;;;;;;;;5056151;28;20374;-69
2024/01/27 03:22:29;;;;;;;4.43;1.63;;;;;;;;;;5050898;28;20439;-66
2024/01/27 03:24:56;;;;;;;8.30;1.98;;;;;;;;;;5060378;28;20140;-66
2024/01/27 03:27:22;;;;;;;2.13;1.88;;;;;;;;;;5061807;28;20110;-66
2024/01/27 03:29:48;;;;;;;5.05;2.10;;;;;;;;;;5064913;28;20021;-66
2024/01/27 03:32:15;;;;;;;6.72;1.75;;;;;;;;;;5069908;28;20111;-66
2024/01/27 03:34:45;;;;;;;3.92;1.90;;;;;;;;;;5065655;28;20039;-69
2024/01/27 03:37:11;;;;;;;8.60;1.95;;;;;;;;;;5061003;28;20036;-66
2024/01/27 03:39:37;;;;;;;4.10;1.50;;;;;;;;;;5070213;28;20082;-66
2024/01/27 03:42:04;;;;;;;3.45;1.40;;;;;;;;;;5065751;28;20028;-66
2024/01/27 03:44:31;;;;;;;1.85;1.63;;;;;;;;;;5065836;28;20473;-66
2024/01/27 03:46:57;;;;;;;2.72;1.67;;;;;;;;;;5069836;28;20028;-66
2024/01/27 03:49:23;;;;;;;2.00;1.90;;;;;;;;;;5070268;28;20031;-66
2024/01/27 03:51:49;;;;;;;6.93;2.13;;;;;;;;;;5065579;28;20500;-66
2024/01/27 03:54:15;;;;;;;1.73;1.63;;;;;;;;;;5059371;28;20543;-66
2024/01/27 03:56:42;;;;;;;2.53;1.63;;;;;;;;;;5065458;28;20055;-66
2024/01/27 03:59:10;;;;;;;5.43;1.55;;;;;;;;;;5065620;28;20488;-67
2024/01/27 04:01:37;;;;;;;1.90;1.27;;;;;;;;;;5067672;28;20016;-65
2024/01/27 04:04:03;;;;;;;1.60;1.45;;;;;;;;;;5068956;28;20127;-66
2024/01/27 04:06:29;;;;;;;1.33;1.27;;;;;;;;;;5063044;28;20096;-66
2024/01/27 04:08:56;;;;;;;3.70;1.60;;;;;;;;;;5069185;28;20028;-66
2024/01/27 04:11:22;;;;;;;4.15;1.30;;;;;;;;;;5063113;28;20108;-66
2024/01/27 04:13:50;;;;;;;6.65;1.35;;;;;;;;;;5068363;28;20029;-67
2024/01/27 04:16:16;;;;;;;1.48;1.35;;;;;;;;;;5068359;28;20027;-66
2024/01/27 04:18:43;;;;;;;1.65;1.55;;;;;;;;;;5066145;28;20484;-67
2024/01/27 04:21:13;;;;;;;3.60;2.13;;;;;;;;;;5068833;28;20452;-67
2024/01/27 04:23:39;;;;;;;1.80;1.70;;;;;;;;;;5068617;28;20033;-66
2024/01/27 04:26:06;;;;;;;1.50;1.40;;;;;;;;;;5063557;28;20052;-67
2024/01/27 04:28:32;;;;;;;3.70;1.42;;;;;;;;;;5061360;28;20960;-66
2024/01/27 04:30:59;;;;;;;3.58;1.15;;;;;;;;;;5067732;28;20029;-65
2024/01/27 04:33:25;;;;;;;2.38;1.20;;;;;;;;;;5071828;28;20064;-66
2024/01/27 04:35:51;;;;;;;2.97;1.25;;;;;;;;;;5067055;28;20025;-67
2024/01/27 04:38:18;;;;;;;4.57;1.23;;;;;;;;;;5066240;28;20516;-66
2024/01/27 04:40:44;;;;;;;2.67;1.35;;;;;;;;;;5067991;28;20040;-66
2024/01/27 04:43:10;;;;;;;1.23;1.23;;;;;;;;;;5065307;28;20111;-66
2024/01/27 04:45:36;;;;;;;0.93;0.93;;;;;;;;;;5059251;28;20024;-66
2024/01/27 04:48:03;;;;;;;1.15;1.15;;;;;;;;;;5068332;28;20055;-66
2024/01/27 04:50:29;;;;;;;3.88;1.45;;;;;;;;;;5070927;28;20025;-66
2024/01/27 04:52:55;;;;;;;10.57;2.28;;;;;;;;;;5060638;28;20447;-66
2024/01/27 04:55:22;;;;;;;3.13;1.20;;;;;;;;;;5069029;28;20025;-66
2024/01/27 04:57:48;;;;;;;1.40;1.40;;;;;;;;;;5060618;28;20436;-66
2024/01/27 05:00:15;;;;;;;2.00;1.73;;;;;;;;;;5065790;28;20424;-66
2024/01/27 05:02:42;;;;;;;1.25;1.20;;;;;;;;;;5066967;28;20020;-66
2024/01/27 05:05:08;;;;;;;1.02;1.02;;;;;;;;;;5063199;28;20024;-66
2024/01/27 05:07:35;;;;;;;5.00;1.50;;;;;;;;;;5062196;28;20028;-67
2024/01/27 05:10:01;;;;;;;1.63;1.33;;;;;;;;;;5064696;28;20024;-66
2024/01/27 05:12:28;;;;;;;3.25;1.30;;;;;;;;;;5062381;28;20083;-66
2024/01/27 05:14:54;;;;;;;3.75;1.40;;;;;;;;;;5067362;28;20879;-66
2024/01/27 05:17:21;;;;;;;3.47;2.17;;;;;;;;;;5068086;28;20036;-66
2024/01/27 05:19:47;;;;;;;1.42;1.33;;;;;;;;;;5061676;28;20480;-67
2024/01/27 05:22:13;;;;;;;3.38;1.23;;;;;;;;;;5070783;28;20488;-67
2024/01/27 05:24:39;;;;;;;2.63;1.30;;;;;;;;;;5059346;28;20100;-61
2024/01/27 05:27:05;;;;;;;8.80;1.73;;;;;;;;;;5058723;28;20027;-61
2024/01/27 05:29:32;;;;;;;4.38;1.30;;;;;;;;;;5059423;28;20529;-62
2024/01/27 05:31:59;;;;;;;4.50;1.50;;;;;;;;;;5057092;28;20109;-61
2024/01/27 05:34:25;;;;;;;1.40;1.30;;;;;;;;;;5058317;28;20032;-61
2024/01/27 05:36:51;;;;;;;4.00;1.58;;;;;;;;;;5056298;28;20033;-65
2024/01/27 05:39:18;;;;;;;3.50;1.80;;;;;;;;;;5065439;28;20102;-61
2024/01/27 05:41:44;;;;;;;1.45;1.35;;;;;;;;;;5060544;28;20459;-61
2024/01/27 05:44:10;;;;;;;3.35;1.27;;;;;;;;;;5051091;28;20509;-61
2024/01/27 05:46:37;;;;;;;1.27;1.17;;;;;;;;;;5051261;28;20037;-61
2024/01/27 05:49:03;;;;;;;3.75;1.60;;;;;;;;;;5065398;28;20548;-61
2024/01/27 05:51:33;;;;;;;2.35;1.60;;;;;;;;;;5059309;28;20683;-61
2024/01/27 05:54:00;;;;;;;8.75;2.83;;;;;;;;;;5054807;28;20227;-61
2024/01/27 05:56:26;;;;;;;2.08;1.52;;;;;;;;;;5064343;28;20475;-61
2024/01/27 05:58:52;;;;;;;1.38;1.27;;;;;;;;;;5051162;28;20082;-61
2024/01/27 06:01:19;;;;;;;1.58;1.30;;;;;;;;;;5058797;28;20233;-63
2024/01/27 06:03:45;;;;;;;1.92;1.38;;;;;;;;;;5054124;28;20462;-61
2024/01/27 06:06:11;;;;;;;2.60;1.60;;;;;;;;;;5061866;28;20016;-62
2024/01/27 06:08:39;;;;;;;2.70;1.35;;;;;;;;;;5063112;28;20055;-62
2024/01/27 06:11:05;;;;;;;3.28;1.40;;;;;;;;;;5060930;28;20469;-60
2024/01/27 06:13:34;;;;;;;4.15;1.52;;;;;;;;;;5058412;28;20063;-61
2024/01/27 06:16:01;;;;;;;1.60;1.50;;;;;;;;;;5057571;28;20104;-61
2024/01/27 06:18:27;;;;;;;5.32;1.48;;;;;;;;;;5057655;28;20033;-64
2024/01/27 06:20:53;;;;;;;2.15;1.67;;;;;;;;;;5059406;28;20191;-61
2024/01/27 06:23:19;;;;;;;2.75;1.30;;;;;;;;;;5058490;28;20555;-62
2024/01/27 06:25:46;;;;;;;1.65;1.55;;;;;;;;;;5056734;28;20025;-61
2024/01/27 06:28:12;;;;;;;1.65;1.45;;;;;;;;;;5053576;28;20025;-63
2024/01/27 06:30:38;;;;;;;1.27;1.27;;;;;;;;;;5057386;28;20029;-61
2024/01/27 06:33:05;;;;;;;2.05;1.65;;;;;;;;;;5056725;28;20029;-61
2024/01/27 06:35:31;;;;;;;1.85;1.65;;;;;;;;;;5061938;28;20477;-61
2024/01/27 06:37:58;;;;;;;3.55;1.58;;;;;;;;;;5055728;28;20025;-61
2024/01/27 06:40:24;;;;;;;6.50;1.35;;;;;;;;;;5066995;28;20088;-62
2024/01/27 06:42:50;;;;;;;2.50;1.55;;;;;;;;;;5059459;28;20030;-61
2024/01/27 06:45:17;;;;;;;1.17;1.13;;;;;;;;;;5062876;28;20032;-61
2024/01/27 06:47:43;;;;;;;3.60;1.10;;;;;;;;;;5054553;28;20044;-61
2024/01/27 06:50:10;;;;;;;3.10;1.42;;;;;;;;;;5061852;28;20024;-61
2024/01/27 06:52:36;;;;;;;6.18;1.52;;;;;;;;;;5063183;28;20501;-65
2024/01/27 06:55:03;;;;;;;3.78;1.90;;;;;;;;;;5050956;28;20047;-61
2024/01/27 06:57:29;;;;;;;2.65;1.42;;;;;;;;;;5058061;28;20052;-61
2024/01/27 06:59:55;;;;;;;5.32;2.03;;;;;;;;;;5057082;28;20028;-61
2024/01/27 07:02:31;;;;;;;1.50;1.10;;;;;;;;;;5053267;28;20040;-62
2024/01/27 07:04:57;;;;;;;1.92;1.17;;;;;;;;;;5051383;28;20025;-61
2024/01/27 07:07:25;;;;;;;5.72;1.58;;;;;;;;;;5060353;28;20024;-61
2024/01/27 07:09:52;;;;;;;1.83;1.25;;;;;;;;;;5060572;28;20071;-61
2024/01/27 07:12:18;;;;;;;1.45;1.02;;;;;;;;;;5056740;28;20025;-61
2024/01/27 07:14:45;;;;;;;1.52;1.35;;;;;;;;;;5056764;28;20840;-61
2024/01/27 07:17:11;;;;;;;4.47;1.60;;;;;;;;;;5054513;28;20429;-61
2024/01/27 07:19:37;;;;;;;1.13;1.02;;;;;;;;;;5055039;28;20032;-61
2024/01/27 07:22:04;;;;;;;5.93;1.83;;;;;;;;;;5055824;28;20040;-66
2024/01/27 07:24:31;;;;;;;1.60;1.50;;;;;;;;;;5059208;28;20065;-61
2024/01/27 07:26:58;;;;;;;8.27;1.85;;;;;;;;;;5054791;28;20077;-61
2024/01/27 07:29:24;;;;;;;3.40;1.40;;;;;;;;;;5057997;28;20044;-61
2024/01/27 07:31:50;;;;;;;4.95;1.35;;;;;;;;;;5063541;28;20163;-61
2024/01/27 07:34:17;;;;;;;2.22;1.73;;;;;;;;;;5067822;28;20582;-62
2024/01/27 07:36:44;;;;;;;1.88;1.40;;;;;;;;;;5058109;28;20047;-62
2024/01/27 07:39:10;;;;;;;3.85;1.40;;;;;;;;;;5062837;28;20139;-61
2024/01/27 07:41:43;;;;;;;1.33;1.23;;;;;;;;;;5062525;28;20033;-61
2024/01/27 07:44:16;;;;;;;6.72;1.63;;;;;;;;;;5059609;28;20028;-62
2024/01/27 07:46:43;;;;;;;2.03;1.15;;;;;;;;;;5058094;28;20020;-61
2024/01/27 07:49:12;;;;;;;6.40;1.48;;;;;;;;;;5067127;28;20786;-62
2024/01/27 07:51:38;;;;;;;1.52;1.42;;;;;;;;;;5060363;28;20233;-64
2024/01/27 07:54:05;;;;;;;3.28;1.42;;;;;;;;;;5065004;28;20032;-62
2024/01/27 07:56:31;;;;;;;2.72;1.73;;;;;;;;;;5067938;28;20029;-61
2024/01/27 07:58:57;;;;;;;5.63;1.52;;;;;;;;;;5058900;28;20033;-61
2024/01/27 08:01:23;;;;;;;5.78;1.88;;;;;;;;;;5061319;28;20086;-61
2024/01/27 08:03:50;;;;;;;5.82;1.55;;;;;;;;;;5064470;28;20031;-61
2024/01/27 08:06:17;;;;;;;13.57;2.45;;;;;;;;;;5064051;28;20024;-61
2024/01/27 08:08:49;;;;;;;8.52;1.73;;;;;;;;;;5060216;28;20541;-61
2024/01/27 08:11:17;;;;;;;5.70;1.70;;;;;;;;;;5061444;28;20500;-61
2024/01/27 08:13:43;;;;;;;3.53;1.35;;;;;;;;;;5059545;28;20079;-62
2024/01/27 08:16:12;;;;;;;7.82;2.08;;;;;;;;;;5061576;28;20064;-63
2024/01/27 08:18:38;;;;;;;8.40;1.48;;;;;;;;;;5051754;28;20055;-62
2024/01/27 08:21:05;;;;;;;1.40;1.30;;;;;;;;;;5062179;28;20135;-61
2024/01/27 08:23:31;;;;;;;8.00;2.55;;;;;;;;;;5058424;28;20127;-63
2024/01/27 08:25:57;;;;;;;1.20;1.20;;;;;;;;;;5056804;28;20021;-62
2024/01/27 08:28:24;;;;;;;5.85;1.90;;;;;;;;;;5059197;28;20061;-62
2024/01/27 08:30:51;;;;;;;2.22;1.63;;;;;;;;;;5055041;28;20059;-61
2024/01/27 08:33:20;;;;;;;7.57;2.30;;;;;;;;;;5058121;28;20040;-62
2024/01/27 08:35:51;;;;;;;5.07;1.35;;;;;;;;;;5062177;28;20397;-61
2024/01/27 08:38:18;;;;;;;9.57;1.95;;;;;;;;;;5063512;28;20017;-61
2024/01/27 08:40:44;;;;;;;2.60;1.40;;;;;;;;;;5068305;28;20431;-61
2024/01/27 08:43:10;;;;;;;3.10;1.92;;;;;;;;;;5065337;28;20025;-61
2024/01/27 08:45:38;;;;;;;3.15;1.52;;;;;;;;;;5061675;28;20019;-61
2024/01/27 08:48:11;;;;;;;3.35;1.58;;;;;;;;;;5058342;28;20028;-61
2024/01/27 08:50:37;;;;;;;6.57;1.90;;;;;;;;;;5064616;28;20124;-61
2024/01/27 08:53:04;;;;;;;1.40;1.30;;;;;;;;;;5059253;28;20338;-62
2024/01/27 08:55:30;;;;;;;2.53;1.42;;;;;;;;;;5059004;28;20032;-61
2024/01/27 08:57:57;;;;;;;5.75;1.60;;;;;;;;;;5059122;28;20404;-61
2024/01/27 09:00:23;;;;;;;5.72;1.70;;;;;;;;;;5061112;28;20028;-61
2024/01/27 09:02:50;;;;;;;2.03;1.48;;;;;;;;;;5052963;28;20029;-61
2024/01/27 09:05:17;;;;;;;5.90;2.35;;;;;;;;;;5063863;28;20046;-61
2024/01/27 09:07:43;;;;;;;6.47;1.85;;;;;;;;;;5057870;28;20374;-61
2024/01/27 09:10:12;;;;;;;1.65;1.38;;;;;;;;;;5063445;28;20029;-61
2024/01/27 09:12:39;;;;;;;7.22;1.42;;;;;;;;;;5066305;28;20548;-61
2024/01/27 09:15:07;;;;;;;8.65;1.98;;;;;;;;;;5064633;28;20041;-61
2024/01/27 09:17:33;;;;;;;2.17;1.30;;;;;;;;;;5057498;28;20162;-62
2024/01/27 09:19:59;;;;;;;6.47;2.05;;;;;;;;;;5064026;28;20040;-61
2024/01/27 09:22:26;;;;;;;6.63;2.05;;;;;;;;;;5058633;28;20028;-60
2024/01/27 09:25:01;;;;;;;2.20;2.00;;;;;;;;;;5065275;28;20174;-61
2024/01/27 09:27:30;;;;;;;5.10;1.90;;;;;;;;;;5056076;28;20431;-61
2024/01/27 09:29:56;;;;;;;5.78;2.45;;;;;;;;;;5063162;28;20072;-61
2024/01/27 09:32:23;;;;;;;8.60;1.88;;;;;;;;;;5060391;28;20395;-62
2024/01/27 09:34:49;;;;;;;3.60;2.20;;;;;;;;;;5061104;28;20032;-61
2024/01/27 09:37:15;;;;;;;3.90;1.80;;;;;;;;;;5070521;28;20024;-60
2024/01/27 09:39:42;;;;;;;5.70;2.00;;;;;;;;;;5059779;28;21354;-61
2024/01/27 09:42:08;;;;;;;3.33;2.08;;;;;;;;;;5059758;28;20087;-61
2024/01/27 09:44:35;;;;;;;3.63;2.03;;;;;;;;;;5058256;28;20093;-61
2024/01/27 09:47:02;;;;;;;5.97;2.40;;;;;;;;;;5055584;28;20048;-61
2024/01/27 09:49:29;;;;;;;5.40;2.40;;;;;;;;;;5055628;28;20492;-62
2024/01/27 09:51:56;;;;;;;7.82;2.25;;;;;;;;;;5061520;28;20074;-61
2024/01/27 09:54:23;;;;;;;12.13;3.08;;;;;;;;;;5057635;28;20025;-62
2024/01/27 09:56:49;;;;;;;5.15;2.13;;;;;;;;;;5059790;28;20039;-61
2024/01/27 09:59:18;;;;;;;12.27;2.40;;;;;;;;;;5057544;28;20044;-61
2024/01/27 10:01:45;;;;;;;6.65;2.38;;;;;;;;;;5060239;28;20027;-61
2024/01/27 10:04:14;;;;;;;2.50;1.58;;;;;;;;;;5061229;28;20669;-61
2024/01/27 10:06:41;;;;;;;2.88;2.08;;;;;;;;;;5051761;28;20021;-60
2024/01/27 10:09:07;;;;;;;4.90;2.10;;;;;;;;;;5054111;28;20550;-60
2024/01/27 10:11:35;;;;;;;9.13;2.75;;;;;;;;;;5063120;28;20029;-60
2024/01/27 10:14:02;;;;;;;3.13;2.10;;;;;;;;;;5064299;28;20050;-61
2024/01/27 10:16:29;;;;;;;5.00;1.98;;;;;;;;;;5060157;28;20032;-62
2024/01/27 10:19:04;;;;;;;10.95;6.80;;;;;;;;;;5063503;28;20786;-60
2024/01/27 10:21:30;;;;;;;13.07;4.43;;;;;;;;;;5066476;28;20040;-60
2024/01/27 10:23:57;;;;;;;6.18;2.67;;;;;;;;;;5063353;28;20523;-60
2024/01/27 10:26:23;;;;;;;9.00;2.85;;;;;;;;;;5059678;28;20029;-60
2024/01/27 10:28:54;;;;;;;11.85;2.75;;;;;;;;;;5061260;28;20025;-60
2024/01/27 10:31:23;;;;;;;9.65;2.00;;;;;;;;;;5060923;28;20032;-60
2024/01/27 10:33:56;;;;;;;10.98;2.25;;;;;;;;;;5062346;28;20032;-60
2024/01/27 10:36:22;;;;;;;6.97;2.20;;;;;;;;;;5061475;28;20090;-65
2024/01/27 10:38:48;;;;;;;11.00;3.38;;;;;;;;;;5062046;28;20032;-63
2024/01/27 10:41:36;;;;;;;9.43;2.22;;;;;;;;;;5066343;28;20463;-60
2024/01/27 10:44:02;;;;;;;9.90;2.90;;;;;;;;;;5066463;28;20036;-60
2024/01/27 10:46:29;;;;;;;2.50;1.63;;;;;;;;;;5055336;28;20039;-63
2024/01/27 10:49:00;;;;;;;6.90;2.42;;;;;;;;;;5061108;28;20387;-60
2024/01/27 10:51:36;;;;;;;3.67;2.28;;;;;;;;;;5057736;28;20035;-61
2024/01/27 10:54:03;;;;;;;6.43;2.60;;;;;;;;;;5060656;28;20029;-60
2024/01/27 10:56:32;;;;;;;8.30;2.80;;;;;;;;;;5060483;28;20025;-60
2024/01/27 10:58:58;;;;;;;7.43;2.30;;;;;;;;;;5050576;28;20039;-60
2024/01/27 11:01:25;;;;;;;5.00;2.17;;;;;;;;;;5066495;28;20034;-64
2024/01/27 11:03:54;;;;;;;14.80;2.78;;;;;;;;;;5064316;28;20111;-63
2024/01/27 11:06:25;;;;;;;7.97;2.08;;;;;;;;;;5058772;28;20059;-61
2024/01/27 11:08:51;;;;;;;12.98;2.60;;;;;;;;;;5071143;28;20491;-61
2024/01/27 11:11:18;;;;;;;10.48;2.55;;;;;;;;;;5068154;28;20033;-60
2024/01/27 11:13:47;;;;;;;9.38;2.72;;;;;;;;;;5063206;28;20437;-61
2024/01/27 11:16:17;;;;;;;6.07;2.25;;;;;;;;;;5070488;28;20021;-61
2024/01/27 11:18:44;;;;;;;7.20;2.17;;;;;;;;;;5069160;28;20032;-64
2024/01/27 11:21:15;;;;;;;7.22;2.22;;;;;;;;;;5064206;28;20029;-61
2024/01/27 11:23:42;;;;;;;10.73;3.13;;;;;;;;;;5059491;28;20037;-61
2024/01/27 11:26:10;;;;;;;4.30;2.60;;;;;;;;;;5045916;28;20052;-61
2024/01/27 11:28:37;;;;;;;4.60;1.83;;;;;;;;;;5064789;28;20032;-60
2024/01/27 11:31:07;;;;;;;17.02;2.75;;;;;;;;;;5068141;28;20024;-62
2024/01/27 11:33:42;;;;;;;5.22;2.85;;;;;;;;;;5063906;28;20036;-61
2024/01/27 11:36:08;;;;;;;;;;;;;;;;;;5062860;28;20025;-61
2024/01/27 11:38:44;;;;;;;7.10;2.17;;;;;;;;;;5059298;28;19975;-61
2024/01/27 11:41:11;;;;;;;5.10;2.50;;;;;;;;;;5055746;28;20368;-61
2024/01/27 11:43:37;;;;;;;9.10;2.80;;;;;;;;;;5071251;28;20111;-64
2024/01/27 11:46:03;;;;;;;8.80;2.78;;;;;;;;;;5060741;28;20435;-61
2024/01/27 11:48:29;;;;;;;13.00;2.60;;;;;;;;;;5060624;28;20083;-63
2024/01/27 11:51:11;;;;;;;11.05;2.78;;;;;;;;;;5059480;28;20097;-61
2024/01/27 11:53:37;;;;;;;8.82;3.40;;;;;;;;;;5065578;28;20033;-61
2024/01/27 11:56:04;;;;;;;11.48;2.75;;;;;;;;;;5059357;28;20121;-61
2024/01/27 11:58:30;;;;;;;17.70;5.72;;;;;;;;;;5062437;28;20396;-61
2024/01/27 12:00:58;;;;;;;6.18;2.78;;;;;;;;;;5054888;28;20503;-62
2024/01/27 12:03:25;;;;;;;15.07;7.40;;;;;;;;;;5056624;28;20033;-64
2024/01/27 12:05:52;;;;;;;11.77;3.28;;;;;;;;;;5063817;28;20035;-60
2024/01/27 12:08:18;;;;;;;5.82;3.45;;;;;;;;;;5067912;28;20074;-60
2024/01/27 12:10:48;;;;;;;50.08;19.75;;;;;;;;;;5062383;28;20021;-62
2024/01/27 12:13:16;;;;;;;15.30;6.88;;;;;;;;;;5063834;28;20079;-62
2024/01/27 12:15:43;;;;;;;16.48;8.32;;;;;;;;;;5060579;28;20794;-60
2024/01/27 12:18:10;;;;;;;35.50;15.93;;;;;;;;;;5060706;28;20032;-62
2024/01/27 12:20:36;;;;;;;16.90;8.55;;;;;;;;;;5059083;28;20024;-61
2024/01/27 12:23:06;;;;;;;13.80;5.63;;;;;;;;;;5056124;28;20049;-61
2024/01/27 12:25:33;;;;;;;5.30;3.20;;;;;;;;;;5064021;28;20031;-60
2024/01/27 12:28:03;;;;;;;33.60;14.27;;;;;;;;;;5060311;28;20028;-61
2024/01/27 12:30:29;;;;;;;13.32;5.72;;;;;;;;;;5053929;28;20458;-61
2024/01/27 12:32:55;;;;;;;13.80;4.50;;;;;;;;;;5060964;28;20405;-63
2024/01/27 12:35:22;;;;;;;8.07;2.63;;;;;;;;;;5052924;28;20031;-63
2024/01/27 12:37:50;;;;;;;32.63;3.80;;;;;;;;;;5052818;28;20507;-61
2024/01/27 12:40:19;;;;;;;9.55;3.05;;;;;;;;;;5060217;28;20036;-62
2024/01/27 12:42:45;;;;;;;8.18;4.00;;;;;;;;;;5056992;28;20033;-61
2024/01/27 12:45:12;;;;;;;14.60;4.78;;;;;;;;;;5057350;28;20035;-62
2024/01/27 12:47:38;;;;;;;6.55;3.90;;;;;;;;;;5060726;28;20171;-61
2024/01/27 12:50:04;;;;;;;9.57;3.35;;;;;;;;;;5057011;28;20032;-61
2024/01/27 12:52:31;;;;;;;10.07;3.15;;;;;;;;;;5055377;28;20035;-63
2024/01/27 12:54:57;;;;;;;7.70;2.95;;;;;;;;;;5060127;28;20033;-61
2024/01/27 12:57:23;;;;;;;6.60;2.92;;;;;;;;;;5055972;28;20513;-62
2024/01/27 13:00:17;;;;;;;9.75;2.85;;;;;;;;;;5055301;28;20032;-60
2024/01/27 13:02:46;;;;;;;6.45;2.50;;;;;;;;;;5053344;28;20037;-61
2024/01/27 13:05:12;;;;;;;9.82;2.75;;;;;;;;;;5056935;28;20039;-61
2024/01/27 13:07:39;;;;;;;11.80;2.60;;;;;;;;;;5062799;28;20024;-61
2024/01/27 13:10:07;;;;;;;8.98;2.90;;;;;;;;;;5062520;28;20032;-60
2024/01/27 13:12:35;;;;;;;6.50;2.70;;;;;;;;;;5058976;28;20203;-62
2024/01/27 13:15:03;;;;;;;8.23;3.33;;;;;;;;;;5062989;28;20029;-68
2024/01/27 13:17:29;;;;;;;6.78;2.53;;;;;;;;;;5050303;28;20025;-68
2024/01/27 13:19:55;;;;;;;11.85;2.50;;;;;;;;;;5068306;28;20322;-68
2024/01/27 13:22:24;;;;;;;10.73;2.55;;;;;;;;;;5063840;28;20028;-69
2024/01/27 13:24:50;;;;;;;5.75;2.38;;;;;;;;;;5064143;28;20123;-68
2024/01/27 13:27:16;;;;;;;10.48;2.70;;;;;;;;;;5059626;28;20032;-68
2024/01/27 13:29:42;;;;;;;9.77;2.78;;;;;;;;;;5057632;28;20033;-68
2024/01/27 13:32:08;;;;;;;6.65;2.33;;;;;;;;;;5056006;28;20111;-68
2024/01/27 13:34:35;;;;;;;10.70;2.35;;;;;;;;;;5062589;28;20033;-67
2024/01/27 13:37:03;;;;;;;4.60;2.45;;;;;;;;;;5058660;28;20116;-68
2024/01/27 13:39:29;;;;;;;3.75;2.38;;;;;;;;;;5071825;28;20388;-68
2024/01/27 13:41:55;;;;;;;6.38;2.95;;;;;;;;;;5069512;28;20029;-68
2024/01/27 13:44:22;;;;;;;5.65;2.35;;;;;;;;;;5065940;28;20488;-69
2024/01/27 13:46:48;;;;;;;10.10;2.88;;;;;;;;;;5068784;28;20027;-68
2024/01/27 13:49:19;;;;;;;10.05;2.60;;;;;;;;;;5062556;28;20036;-68
2024/01/27 13:51:46;;;;;;;9.30;2.33;;;;;;;;;;5068629;28;20055;-67
2024/01/27 13:54:12;;;;;;;5.38;2.13;;;;;;;;;;5062173;28;20339;-68
2024/01/27 13:56:38;;;;;;;7.13;2.53;;;;;;;;;;5065061;28;20036;-68
2024/01/27 13:59:06;;;;;;;11.57;2.50;;;;;;;;;;5064402;28;20021;-68
2024/01/27 14:01:33;;;;;;;8.98;3.22;;;;;;;;;;5065239;28;20454;-69
2024/01/27 14:03:59;;;;;;;8.52;2.78;;;;;;;;;;5061405;28;20037;-67
2024/01/27 14:06:26;;;;;;;10.43;2.90;;;;;;;;;;5059666;28;20029;-68
2024/01/27 14:08:52;;;;;;;9.48;2.20;;;;;;;;;;5062817;28;20029;-73
2024/01/27 14:11:19;;;;;;;11.15;3.35;;;;;;;;;;5057156;28;20078;-69
2024/01/27 14:13:45;;;;;;;9.80;3.20;;;;;;;;;;5051573;28;20039;-69
2024/01/27 14:16:11;;;;;;;10.32;2.90;;;;;;;;;;5062247;28;20032;-69
2024/01/27 14:18:37;;;;;;;4.63;2.95;;;;;;;;;;5060891;28;20036;-69
2024/01/27 14:21:03;;;;;;;6.60;3.47;;;;;;;;;;5056893;28;20029;-69
2024/01/27 14:23:31;;;;;;;7.30;2.95;;;;;;;;;;5059775;28;20047;-69
2024/01/27 14:25:58;;;;;;;5.03;2.05;;;;;;;;;;5052083;28;20033;-70
2024/01/27 14:28:24;;;;;;;11.57;3.63;;;;;;;;;;5051661;28;20036;-69
2024/01/27 14:30:50;;;;;;;5.63;2.42;;;;;;;;;;5055610;28;20381;-69
2024/01/27 14:33:20;;;;;;;5.93;2.42;;;;;;;;;;5064111;28;20411;-68
2024/01/27 14:35:47;;;;;;;10.23;4.20;;;;;;;;;;5061627;28;20540;-69
2024/01/27 14:38:14;;;;;;;6.85;2.90;;;;;;;;;;5064429;28;20024;-70
2024/01/27 14:40:41;;;;;;;17.30;4.85;;;;;;;;;;5064537;28;20508;-69